sensor_id;sensor_type;location;lat;lon;timestamp;pressure;altitude;pressure_sealevel;temperature;humidity
77793;BME280;66983;51.438;5.438;2023-04-24T00:01:40;99940.00;;;9.92;86.86
77793;BME280;66983;51.438;5.438;2023-04-24T00:04:08;99938.19;;;9.92;86.71
77793;BME280;66983;51.438;5.438;2023-04-24T00:06:37;99936.38;;;9.93;86.83
77793;BME280;66983;51.438;5.438;2023-04-24T00:09:04;99937.19;;;9.95;86.24
77793;BME280;66983;51.438;5.438;2023-04-24T00:11:30;99943.38;;;9.95;85.50
77793;BME280;66983;51.438;5.438;2023-04-24T00:13:56;99937.19;;;9.95;85.79
77793;BME280;66983;51.438;5.438;2023-04-24T00:16:22;99941.72;;;9.93;85.41
77793;BME280;66983;51.438;5.438;2023-04-24T00:18:48;99948.91;;;9.91;85.11
77793;BME280;66983;51.438;5.438;2023-04-24T00:21:15;99945.47;;;9.88;85.32
77793;BME280;66983;51.438;5.438;2023-04-24T00:23:43;99948.06;;;9.90;85.82
77793;BME280;66983;51.438;5.438;2023-04-24T00:26:09;99943.59;;;9.91;84.70
77793;BME280;66983;51.438;5.438;2023-04-24T00:28:35;99937.47;;;9.88;86.02
77793;BME280;66983;51.438;5.438;2023-04-24T00:31:00;99952.50;;;9.90;84.89
77793;BME280;66983;51.438;5.438;2023-04-24T00:33:26;99949.94;;;9.88;84.90
77793;BME280;66983;51.438;5.438;2023-04-24T00:35:52;99955.16;;;9.90;85.92
77793;BME280;66983;51.438;5.438;2023-04-24T00:38:18;99960.50;;;9.90;85.71
77793;BME280;66983;51.438;5.438;2023-04-24T00:40:44;99949.94;;;9.88;85.88
77793;BME280;66983;51.438;5.438;2023-04-24T00:43:10;99962.38;;;9.87;85.37
77793;BME280;66983;51.438;5.438;2023-04-24T00:45:35;99957.16;;;9.86;86.23
77793;BME280;66983;51.438;5.438;2023-04-24T00:48:01;99957.31;;;9.83;84.90
77793;BME280;66983;51.438;5.438;2023-04-24T00:50:30;99959.09;;;9.82;85.50
77793;BME280;66983;51.438;5.438;2023-04-24T00:52:56;99950.25;;;9.82;86.45
77793;BME280;66983;51.438;5.438;2023-04-24T00:55:22;99964.56;;;9.79;85.84
77793;BME280;66983;51.438;5.438;2023-04-24T00:57:48;99960.25;;;9.77;84.81
77793;BME280;66983;51.438;5.438;2023-04-24T01:00:15;99954.09;;;9.76;85.77
77793;BME280;66983;51.438;5.438;2023-04-24T01:02:44;99948.84;;;9.75;85.77
77793;BME280;66983;51.438;5.438;2023-04-24T01:05:12;99957.75;;;9.74;85.85
77793;BME280;66983;51.438;5.438;2023-04-24T01:07:40;99959.56;;;9.73;85.74
77793;BME280;66983;51.438;5.438;2023-04-24T01:10:09;99962.22;;;9.73;86.06
77793;BME280;66983;51.438;5.438;2023-04-24T01:12:35;99957.97;;;9.69;86.90
77793;BME280;66983;51.438;5.438;2023-04-24T01:15:01;99949.34;;;9.64;86.15
77793;BME280;66983;51.438;5.438;2023-04-24T01:17:26;99955.47;;;9.66;87.02
77793;BME280;66983;51.438;5.438;2023-04-24T01:19:53;99956.53;;;9.62;85.98
77793;BME280;66983;51.438;5.438;2023-04-24T01:22:19;99957.50;;;9.61;85.67
77793;BME280;66983;51.438;5.438;2023-04-24T01:24:46;99956.72;;;9.59;86.27
77793;BME280;66983;51.438;5.438;2023-04-24T01:27:12;99955.00;;;9.58;85.81
77793;BME280;66983;51.438;5.438;2023-04-24T01:29:38;99953.28;;;9.57;86.59
77793;BME280;66983;51.438;5.438;2023-04-24T01:32:04;99952.41;;;9.57;86.32
77793;BME280;66983;51.438;5.438;2023-04-24T01:34:30;99959.53;;;9.56;86.42
77793;BME280;66983;51.438;5.438;2023-04-24T01:36:56;99957.66;;;9.58;86.78
77793;BME280;66983;51.438;5.438;2023-04-24T01:39:22;99961.09;;;9.60;86.44
77793;BME280;66983;51.438;5.438;2023-04-24T01:41:52;99950.63;;;9.57;86.55
77793;BME280;66983;51.438;5.438;2023-04-24T01:44:19;99954.06;;;9.59;85.46
77793;BME280;66983;51.438;5.438;2023-04-24T01:46:44;99953.88;;;9.62;86.26
77793;BME280;66983;51.438;5.438;2023-04-24T01:49:10;99960.19;;;9.61;85.81
77793;BME280;66983;51.438;5.438;2023-04-24T01:51:37;99956.53;;;9.62;85.35
77793;BME280;66983;51.438;5.438;2023-04-24T01:54:03;99951.34;;;9.61;86.44
77793;BME280;66983;51.438;5.438;2023-04-24T01:56:29;99961.09;;;9.60;85.86
77793;BME280;66983;51.438;5.438;2023-04-24T01:58:56;99946.22;;;9.56;85.63
77793;BME280;66983;51.438;5.438;2023-04-24T02:01:26;99960.25;;;9.60;85.37
77793;BME280;66983;51.438;5.438;2023-04-24T02:03:51;99963.78;;;9.60;85.67
77793;BME280;66983;51.438;5.438;2023-04-24T02:06:17;99961.19;;;9.59;84.72
77793;BME280;66983;51.438;5.438;2023-04-24T02:08:43;99958.53;;;9.59;85.35
77793;BME280;66983;51.438;5.438;2023-04-24T02:11:09;99965.66;;;9.58;84.26
77793;BME280;66983;51.438;5.438;2023-04-24T02:13:35;99958.66;;;9.56;84.43
77793;BME280;66983;51.438;5.438;2023-04-24T02:16:01;99959.53;;;9.56;85.43
77793;BME280;66983;51.438;5.438;2023-04-24T02:18:26;99963.13;;;9.55;84.25
77793;BME280;66983;51.438;5.438;2023-04-24T02:20:52;99968.31;;;9.58;85.32
77793;BME280;66983;51.438;5.438;2023-04-24T02:23:17;99973.56;;;9.60;84.84
77793;BME280;66983;51.438;5.438;2023-04-24T02:25:44;99968.22;;;9.60;85.12
77793;BME280;66983;51.438;5.438;2023-04-24T02:28:11;99968.16;;;9.61;85.34
77793;BME280;66983;51.438;5.438;2023-04-24T02:30:36;99962.84;;;9.61;84.88
77793;BME280;66983;51.438;5.438;2023-04-24T02:33:02;99963.66;;;9.62;84.89
77793;BME280;66983;51.438;5.438;2023-04-24T02:35:28;99959.38;;;9.59;83.77
77793;BME280;66983;51.438;5.438;2023-04-24T02:37:54;99965.41;;;9.63;84.62
77793;BME280;66983;51.438;5.438;2023-04-24T02:40:19;99966.31;;;9.62;83.75
77793;BME280;66983;51.438;5.438;2023-04-24T02:42:46;99959.31;;;9.61;83.86
77793;BME280;66983;51.438;5.438;2023-04-24T02:45:11;99950.38;;;9.62;84.52
77793;BME280;66983;51.438;5.438;2023-04-24T02:47:38;99947.69;;;9.62;84.62
77793;BME280;66983;51.438;5.438;2023-04-24T02:50:04;99951.34;;;9.61;84.58
77793;BME280;66983;51.438;5.438;2023-04-24T02:52:30;99948.56;;;9.62;84.33
77793;BME280;66983;51.438;5.438;2023-04-24T02:54:55;99944.44;;;9.57;84.24
77793;BME280;66983;51.438;5.438;2023-04-24T02:57:21;99951.34;;;9.61;84.55
77793;BME280;66983;51.438;5.438;2023-04-24T02:59:47;99950.47;;;9.60;83.60
77793;BME280;66983;51.438;5.438;2023-04-24T03:02:12;99954.06;;;9.59;83.57
77793;BME280;66983;51.438;5.438;2023-04-24T03:04:38;99954.94;;;9.60;84.24
77793;BME280;66983;51.438;5.438;2023-04-24T03:07:05;99948.91;;;9.56;84.44
77793;BME280;66983;51.438;5.438;2023-04-24T03:09:31;99943.66;;;9.55;84.40
77793;BME280;66983;51.438;5.438;2023-04-24T03:11:56;99955.16;;;9.55;84.20
77793;BME280;66983;51.438;5.438;2023-04-24T03:14:24;99946.38;;;9.53;83.50
77793;BME280;66983;51.438;5.438;2023-04-24T03:16:50;99949.03;;;9.53;84.61
77793;BME280;66983;51.438;5.438;2023-04-24T03:19:15;99945.59;;;9.51;83.81
77793;BME280;66983;51.438;5.438;2023-04-24T03:21:57;99953.56;;;9.51;83.52
77793;BME280;66983;51.438;5.438;2023-04-24T03:24:23;99954.50;;;9.50;83.91
77793;BME280;66983;51.438;5.438;2023-04-24T03:26:48;99957.25;;;9.48;84.12
77793;BME280;66983;51.438;5.438;2023-04-24T03:29:37;99954.66;;;9.47;83.98
77793;BME280;66983;51.438;5.438;2023-04-24T03:32:02;99952.94;;;9.46;84.40
77793;BME280;66983;51.438;5.438;2023-04-24T03:34:29;99948.47;;;9.46;83.70
77793;BME280;66983;51.438;5.438;2023-04-24T03:36:56;99953.72;;;9.48;83.66
77793;BME280;66983;51.438;5.438;2023-04-24T03:39:22;99959.09;;;9.46;83.04
77793;BME280;66983;51.438;5.438;2023-04-24T03:41:53;99956.66;;;9.42;84.36
77793;BME280;66983;51.438;5.438;2023-04-24T03:44:23;99954.09;;;9.40;84.29
77793;BME280;66983;51.438;5.438;2023-04-24T03:46:49;99947.75;;;9.43;84.67
77793;BME280;66983;51.438;5.438;2023-04-24T03:49:15;99946.81;;;9.44;83.90
77793;BME280;66983;51.438;5.438;2023-04-24T03:51:43;99947.75;;;9.43;83.13
77793;BME280;66983;51.438;5.438;2023-04-24T03:54:19;99945.09;;;9.43;84.06
77793;BME280;66983;51.438;5.438;2023-04-24T03:56:45;99953.16;;;9.41;82.68
77793;BME280;66983;51.438;5.438;2023-04-24T03:59:11;99952.28;;;9.41;83.63
77793;BME280;66983;51.438;5.438;2023-04-24T04:01:38;99955.88;;;9.40;84.07
77793;BME280;66983;51.438;5.438;2023-04-24T04:04:10;99956.66;;;9.42;83.37
77793;BME280;66983;51.438;5.438;2023-04-24T04:06:37;99947.91;;;9.40;84.26
77793;BME280;66983;51.438;5.438;2023-04-24T04:09:04;99956.75;;;9.40;84.47
77793;BME280;66983;51.438;5.438;2023-04-24T04:11:30;99956.94;;;9.36;84.55
77793;BME280;66983;51.438;5.438;2023-04-24T04:13:56;99960.59;;;9.35;84.47
77793;BME280;66983;51.438;5.438;2023-04-24T04:16:22;99968.69;;;9.32;84.96
77793;BME280;66983;51.438;5.438;2023-04-24T04:18:51;99962.66;;;9.28;83.61
77793;BME280;66983;51.438;5.438;2023-04-24T04:21:17;99961.88;;;9.26;83.87
77793;BME280;66983;51.438;5.438;2023-04-24T04:23:43;99961.94;;;9.25;85.76
77793;BME280;66983;51.438;5.438;2023-04-24T04:26:24;99963.94;;;9.19;85.29
77793;BME280;66983;51.438;5.438;2023-04-24T04:29:03;99963.16;;;9.17;85.40
77793;BME280;66983;51.438;5.438;2023-04-24T04:31:30;99976.53;;;9.16;85.34
77793;BME280;66983;51.438;5.438;2023-04-24T04:33:58;99982.84;;;9.13;86.33
77793;BME280;66983;51.438;5.438;2023-04-24T04:36:24;99972.28;;;9.12;85.19
77793;BME280;66983;51.438;5.438;2023-04-24T04:38:58;99965.16;;;9.12;86.38
77793;BME280;66983;51.438;5.438;2023-04-24T04:41:53;99975.81;;;9.12;85.08
77793;BME280;66983;51.438;5.438;2023-04-24T04:44:21;99969.69;;;9.10;86.28
77793;BME280;66983;51.438;5.438;2023-04-24T04:46:47;99969.78;;;9.09;87.21
77793;BME280;66983;51.438;5.438;2023-04-24T04:49:34;99968.06;;;9.08;86.97
77793;BME280;66983;51.438;5.438;2023-04-24T04:52:00;99976.03;;;9.08;86.11
77793;BME280;66983;51.438;5.438;2023-04-24T04:54:27;99974.16;;;9.10;85.89
77793;BME280;66983;51.438;5.438;2023-04-24T04:56:53;99979.47;;;9.10;87.63
77793;BME280;66983;51.438;5.438;2023-04-24T04:59:19;99983.16;;;9.07;85.98
77793;BME280;66983;51.438;5.438;2023-04-24T05:01:46;99981.50;;;9.05;87.31
77793;BME280;66983;51.438;5.438;2023-04-24T05:04:14;99977.97;;;9.04;87.23
77793;BME280;66983;51.438;5.438;2023-04-24T05:06:40;99983.28;;;9.04;87.83
77793;BME280;66983;51.438;5.438;2023-04-24T05:09:06;99979.69;;;9.05;87.10
77793;BME280;66983;51.438;5.438;2023-04-24T05:11:42;99989.41;;;9.06;87.07
77793;BME280;66983;51.438;5.438;2023-04-24T05:14:08;99981.72;;;9.00;86.65
77793;BME280;66983;51.438;5.438;2023-04-24T05:16:36;99995.00;;;9.00;88.53
77793;BME280;66983;51.438;5.438;2023-04-24T05:19:03;99989.75;;;8.99;87.94
77793;BME280;66983;51.438;5.438;2023-04-24T05:21:34;100006.69;;;8.96;88.38
77793;BME280;66983;51.438;5.438;2023-04-24T05:23:59;99999.66;;;8.95;87.52
77793;BME280;66983;51.438;5.438;2023-04-24T05:26:41;100010.41;;;8.92;87.83
77793;BME280;66983;51.438;5.438;2023-04-24T05:29:08;100005.38;;;8.86;87.73
77793;BME280;66983;51.438;5.438;2023-04-24T05:31:33;100019.59;;;8.85;88.03
77793;BME280;66983;51.438;5.438;2023-04-24T05:33:59;100013.41;;;8.84;88.60
77793;BME280;66983;51.438;5.438;2023-04-24T05:36:24;100019.66;;;8.83;88.65
77793;BME280;66983;51.438;5.438;2023-04-24T05:38:50;100022.47;;;8.80;89.17
77793;BME280;66983;51.438;5.438;2023-04-24T05:41:16;100035.91;;;8.77;88.84
77793;BME280;66983;51.438;5.438;2023-04-24T05:43:42;100028.25;;;8.70;88.27
77793;BME280;66983;51.438;5.438;2023-04-24T05:46:07;100031.91;;;8.67;88.56
77793;BME280;66983;51.438;5.438;2023-04-24T05:48:33;100024.94;;;8.65;88.74
77793;BME280;66983;51.438;5.438;2023-04-24T05:51:00;100029.47;;;8.63;88.25
77793;BME280;66983;51.438;5.438;2023-04-24T05:53:26;100026.94;;;8.60;88.17
77793;BME280;66983;51.438;5.438;2023-04-24T05:55:52;100032.47;;;8.55;89.04
77793;BME280;66983;51.438;5.438;2023-04-24T05:58:18;100033.41;;;8.54;89.95
77793;BME280;66983;51.438;5.438;2023-04-24T06:00:45;100034.31;;;8.53;88.41
77793;BME280;66983;51.438;5.438;2023-04-24T06:03:12;100036.13;;;8.53;89.74
77793;BME280;66983;51.438;5.438;2023-04-24T06:05:37;100038.91;;;8.49;88.63
77793;BME280;66983;51.438;5.438;2023-04-24T06:08:03;100055.78;;;8.48;89.60
77793;BME280;66983;51.438;5.438;2023-04-24T06:10:33;100056.75;;;8.46;88.85
77793;BME280;66983;51.438;5.438;2023-04-24T06:12:59;100057.69;;;8.45;90.17
77793;BME280;66983;51.438;5.438;2023-04-24T06:15:29;100068.31;;;8.45;89.06
77793;BME280;66983;51.438;5.438;2023-04-24T06:18:06;100063.13;;;8.42;89.42
77793;BME280;66983;51.438;5.438;2023-04-24T06:20:33;100079.00;;;8.43;90.60
77793;BME280;66983;51.438;5.438;2023-04-24T06:22:58;100080.84;;;8.41;90.94
77793;BME280;66983;51.438;5.438;2023-04-24T06:25:25;100080.84;;;8.41;90.34
77793;BME280;66983;51.438;5.438;2023-04-24T06:27:52;100085.28;;;8.41;90.16
77793;BME280;66983;51.438;5.438;2023-04-24T06:30:17;100102.91;;;8.43;89.69
77793;BME280;66983;51.438;5.438;2023-04-24T06:32:43;100101.16;;;8.42;90.68
77793;BME280;66983;51.438;5.438;2023-04-24T06:35:09;100114.38;;;8.44;90.90
77793;BME280;66983;51.438;5.438;2023-04-24T06:37:35;100124.13;;;8.43;90.05
77793;BME280;66983;51.438;5.438;2023-04-24T06:40:01;100122.41;;;8.42;90.40
77793;BME280;66983;51.438;5.438;2023-04-24T06:42:27;100132.16;;;8.42;90.07
77793;BME280;66983;51.438;5.438;2023-04-24T06:44:54;100140.88;;;8.45;90.91
77793;BME280;66983;51.438;5.438;2023-04-24T06:47:20;100143.53;;;8.45;91.52
77793;BME280;66983;51.438;5.438;2023-04-24T06:49:45;100159.47;;;8.45;90.37
77793;BME280;66983;51.438;5.438;2023-04-24T06:52:11;100163.03;;;8.44;90.51
77793;BME280;66983;51.438;5.438;2023-04-24T06:54:36;100172.81;;;8.44;90.58
77793;BME280;66983;51.438;5.438;2023-04-24T06:57:02;100180.81;;;8.42;91.40
77793;BME280;66983;51.438;5.438;2023-04-24T06:59:28;100190.47;;;8.45;90.06
77793;BME280;66983;51.438;5.438;2023-04-24T07:01:54;100190.47;;;8.45;90.54
77793;BME280;66983;51.438;5.438;2023-04-24T07:04:20;100201.09;;;8.45;90.92
77793;BME280;66983;51.438;5.438;2023-04-24T07:06:47;100219.72;;;8.43;90.32
77793;BME280;66983;51.438;5.438;2023-04-24T07:09:14;100221.53;;;8.43;89.92
77793;BME280;66983;51.438;5.438;2023-04-24T07:11:41;100223.31;;;8.42;90.56
77793;BME280;66983;51.438;5.438;2023-04-24T07:14:07;100233.00;;;8.43;91.80
77793;BME280;66983;51.438;5.438;2023-04-24T07:16:33;100233.88;;;8.44;90.82
77793;BME280;66983;51.438;5.438;2023-04-24T07:18:59;100248.00;;;8.44;90.11
77793;BME280;66983;51.438;5.438;2023-04-24T07:21:24;100250.50;;;8.49;91.23
77793;BME280;66983;51.438;5.438;2023-04-24T07:23:51;100251.38;;;8.49;91.06
77793;BME280;66983;51.438;5.438;2023-04-24T07:26:16;100272.59;;;8.49;90.72
77793;BME280;66983;51.438;5.438;2023-04-24T07:28:42;100261.13;;;8.49;91.06
77793;BME280;66983;51.438;5.438;2023-04-24T07:31:08;100272.59;;;8.49;91.40
77793;BME280;66983;51.438;5.438;2023-04-24T07:33:33;100283.13;;;8.53;91.54
77793;BME280;66983;51.438;5.438;2023-04-24T07:35:59;100289.34;;;8.52;91.54
77793;BME280;66983;51.438;5.438;2023-04-24T07:38:25;100302.63;;;8.52;90.28
77793;BME280;66983;51.438;5.438;2023-04-24T07:40:51;100294.84;;;8.47;90.78
77793;BME280;66983;51.438;5.438;2023-04-24T07:43:20;100310.00;;;8.43;88.95
77793;BME280;66983;51.438;5.438;2023-04-24T07:45:46;100331.16;;;8.46;90.16
77793;BME280;66983;51.438;5.438;2023-04-24T07:48:12;100328.59;;;8.43;88.54
77793;BME280;66983;51.438;5.438;2023-04-24T07:50:40;100348.06;;;8.44;88.58
77793;BME280;66983;51.438;5.438;2023-04-24T07:53:05;100345.34;;;8.45;89.88
77793;BME280;66983;51.438;5.438;2023-04-24T07:55:31;100363.13;;;8.43;88.58
77793;BME280;66983;51.438;5.438;2023-04-24T07:57:56;100358.75;;;8.42;89.47
77793;BME280;66983;51.438;5.438;2023-04-24T08:00:22;100375.47;;;8.44;89.18
77793;BME280;66983;51.438;5.438;2023-04-24T08:02:48;100369.19;;;8.47;90.20
77793;BME280;66983;51.438;5.438;2023-04-24T08:05:13;100375.44;;;8.46;90.60
77793;BME280;66983;51.438;5.438;2023-04-24T08:07:39;100378.84;;;8.49;89.61
77793;BME280;66983;51.438;5.438;2023-04-24T08:10:05;100389.34;;;8.53;90.26
77793;BME280;66983;51.438;5.438;2023-04-24T08:12:31;100389.34;;;8.53;90.49
77793;BME280;66983;51.438;5.438;2023-04-24T08:14:56;100392.81;;;8.55;90.46
77793;BME280;66983;51.438;5.438;2023-04-24T08:17:22;100400.72;;;8.56;90.00
77793;BME280;66983;51.438;5.438;2023-04-24T08:19:47;100397.97;;;8.58;89.51
77793;BME280;66983;51.438;5.438;2023-04-24T08:22:14;100412.06;;;8.60;89.31
77793;BME280;66983;51.438;5.438;2023-04-24T08:24:40;100425.31;;;8.61;89.49
77793;BME280;66983;51.438;5.438;2023-04-24T08:27:06;100428.00;;;8.60;89.77
77793;BME280;66983;51.438;5.438;2023-04-24T08:29:31;100424.53;;;8.58;89.00
77793;BME280;66983;51.438;5.438;2023-04-24T08:31:57;100437.81;;;8.58;90.47
77793;BME280;66983;51.438;5.438;2023-04-24T08:34:23;100445.03;;;8.56;90.06
77793;BME280;66983;51.438;5.438;2023-04-24T08:36:48;100442.31;;;8.57;90.04
77793;BME280;66983;51.438;5.438;2023-04-24T08:39:14;100436.91;;;8.59;89.96
77793;BME280;66983;51.438;5.438;2023-04-24T08:41:42;100439.41;;;8.63;88.35
77793;BME280;66983;51.438;5.438;2023-04-24T08:44:11;100449.00;;;8.67;89.06
77793;BME280;66983;51.438;5.438;2023-04-24T08:46:39;100463.03;;;8.71;89.05
77793;BME280;66983;51.438;5.438;2023-04-24T08:49:06;100460.19;;;8.75;89.79
77793;BME280;66983;51.438;5.438;2023-04-24T08:51:31;100464.28;;;8.84;89.22
77793;BME280;66983;51.438;5.438;2023-04-24T08:53:57;100464.16;;;8.87;90.21
77793;BME280;66983;51.438;5.438;2023-04-24T08:56:23;100480.53;;;9.00;88.59
77793;BME280;66983;51.438;5.438;2023-04-24T08:58:53;100481.97;;;9.08;88.64
77793;BME280;66983;51.438;5.438;2023-04-24T09:01:20;100482.41;;;9.19;89.19
77793;BME280;66983;51.438;5.438;2023-04-24T09:03:48;100481.31;;;9.25;87.53
77793;BME280;66983;51.438;5.438;2023-04-24T09:06:14;100492.94;;;9.23;87.66
77793;BME280;66983;51.438;5.438;2023-04-24T09:08:43;100496.56;;;9.20;86.61
77793;BME280;66983;51.438;5.438;2023-04-24T09:11:11;100497.72;;;9.13;87.24
77793;BME280;66983;51.438;5.438;2023-04-24T09:13:37;100504.41;;;9.01;85.69
77793;BME280;66983;51.438;5.438;2023-04-24T09:16:03;100509.81;;;8.98;85.09
77793;BME280;66983;51.438;5.438;2023-04-24T09:18:28;100513.41;;;8.97;84.87
77793;BME280;66983;51.438;5.438;2023-04-24T09:23:26;100525.00;;;8.95;85.32
77793;BME280;66983;51.438;5.438;2023-04-24T09:25:55;100531.91;;;9.00;86.00
77793;BME280;66983;51.438;5.438;2023-04-24T09:28:26;100533.41;;;9.07;85.80
77793;BME280;66983;51.438;5.438;2023-04-24T09:31:12;100541.25;;;9.10;86.28
77793;BME280;66983;51.438;5.438;2023-04-24T09:33:39;100544.72;;;9.12;87.34
77793;BME280;66983;51.438;5.438;2023-04-24T09:36:05;100541.03;;;9.16;86.08
77793;BME280;66983;51.438;5.438;2023-04-24T09:38:37;100549.81;;;9.18;85.74
77793;BME280;66983;51.438;5.438;2023-04-24T09:41:06;100555.28;;;9.14;85.12
77793;BME280;66983;51.438;5.438;2023-04-24T09:43:32;100556.28;;;9.11;83.96
77793;BME280;66983;51.438;5.438;2023-04-24T09:46:05;100572.38;;;9.08;83.39
77793;BME280;66983;51.438;5.438;2023-04-24T09:48:35;100560.09;;;9.04;84.63
77793;BME280;66983;51.438;5.438;2023-04-24T09:51:03;100575.25;;;9.02;84.44
77793;BME280;66983;51.438;5.438;2023-04-24T09:53:30;100571.72;;;9.02;82.59
77793;BME280;66983;51.438;5.438;2023-04-24T09:56:02;100585.66;;;9.08;83.69
77793;BME280;66983;51.438;5.438;2023-04-24T09:58:29;100595.16;;;9.14;83.10
77793;BME280;66983;51.438;5.438;2023-04-24T10:00:56;100594.84;;;9.23;83.49
77793;BME280;66983;51.438;5.438;2023-04-24T10:03:25;100593.63;;;9.32;80.45
77793;BME280;66983;51.438;5.438;2023-04-24T10:05:53;100590.56;;;9.42;81.28
77793;BME280;66983;51.438;5.438;2023-04-24T10:08:19;100591.19;;;9.49;81.51
77793;BME280;66983;51.438;5.438;2023-04-24T10:10:45;100606.69;;;9.61;81.81
77793;BME280;66983;51.438;5.438;2023-04-24T10:13:13;100607.75;;;9.57;78.93
77793;BME280;66983;51.438;5.438;2023-04-24T10:15:41;100611.88;;;9.64;80.69
77793;BME280;66983;51.438;5.438;2023-04-24T10:18:08;100603.88;;;9.64;80.23
77793;BME280;66983;51.438;5.438;2023-04-24T10:20:37;100595.09;;;9.62;78.36
77793;BME280;66983;51.438;5.438;2023-04-24T10:23:03;100609.25;;;9.63;78.03
77793;BME280;66983;51.438;5.438;2023-04-24T10:25:31;100610.41;;;9.57;77.03
77793;BME280;66983;51.438;5.438;2023-04-24T10:27:58;100617.44;;;9.58;76.92
77793;BME280;66983;51.438;5.438;2023-04-24T10:30:30;100616.47;;;9.61;78.39
77793;BME280;66983;51.438;5.438;2023-04-24T10:32:56;100613.88;;;9.59;76.58
77793;BME280;66983;51.438;5.438;2023-04-24T10:35:22;100621.84;;;9.59;79.11
77793;BME280;66983;51.438;5.438;2023-04-24T10:37:56;100620.94;;;9.60;78.84
77793;BME280;66983;51.438;5.438;2023-04-24T10:40:30;100621.97;;;9.56;76.47
77793;BME280;66983;51.438;5.438;2023-04-24T10:42:56;100638.97;;;9.52;75.57
77793;BME280;66983;51.438;5.438;2023-04-24T10:45:23;100635.72;;;9.44;76.88
77793;BME280;66983;51.438;5.438;2023-04-24T10:47:56;100643.91;;;9.38;76.48
77793;BME280;66983;51.438;5.438;2023-04-24T10:50:22;100640.44;;;9.36;78.76
77793;BME280;66983;51.438;5.438;2023-04-24T10:52:49;100640.22;;;9.42;77.89
77793;BME280;66983;51.438;5.438;2023-04-24T10:55:43;100646.88;;;9.53;77.14
77793;BME280;66983;51.438;5.438;2023-04-24T10:58:10;100642.94;;;9.64;77.91
77793;BME280;66983;51.438;5.438;2023-04-24T11:00:38;100660.13;;;9.78;77.69
77793;BME280;66983;51.438;5.438;2023-04-24T11:03:23;100657.22;;;9.84;75.01
77793;BME280;66983;51.438;5.438;2023-04-24T11:05:50;100661.75;;;9.82;73.94
77793;BME280;66983;51.438;5.438;2023-04-24T11:08:28;100669.03;;;9.77;76.08
77793;BME280;66983;51.438;5.438;2023-04-24T11:10:58;100672.63;;;9.76;73.57
77793;BME280;66983;51.438;5.438;2023-04-24T11:13:27;100675.91;;;9.83;75.08
77793;BME280;66983;51.438;5.438;2023-04-24T11:16:12;100667.63;;;9.91;74.49
77793;BME280;66983;51.438;5.438;2023-04-24T11:18:38;100673.75;;;9.93;73.35
77793;BME280;66983;51.438;5.438;2023-04-24T11:21:12;100675.44;;;9.95;73.13
77793;BME280;66983;51.438;5.438;2023-04-24T11:23:39;100675.53;;;9.92;73.82
77793;BME280;66983;51.438;5.438;2023-04-24T11:26:25;100684.66;;;9.86;73.44
77793;BME280;66983;51.438;5.438;2023-04-24T11:29:07;100699.06;;;9.81;73.17
77793;BME280;66983;51.438;5.438;2023-04-24T11:31:39;100685.94;;;9.76;72.68
77793;BME280;66983;51.438;5.438;2023-04-24T11:34:13;100696.22;;;9.85;72.99
77793;BME280;66983;51.438;5.438;2023-04-24T11:36:42;100694.59;;;9.81;71.46
77793;BME280;66983;51.438;5.438;2023-04-24T11:39:08;100702.28;;;9.89;74.15
77793;BME280;66983;51.438;5.438;2023-04-24T11:41:34;100703.91;;;9.93;73.45
77793;BME280;66983;51.438;5.438;2023-04-24T11:44:01;100711.84;;;9.95;70.92
77793;BME280;66983;51.438;5.438;2023-04-24T11:46:29;100718.94;;;9.94;72.65
77793;BME280;66983;51.438;5.438;2023-04-24T11:48:56;100706.63;;;9.92;71.08
77793;BME280;66983;51.438;5.438;2023-04-24T11:51:26;100708.63;;;9.86;71.96
77793;BME280;66983;51.438;5.438;2023-04-24T11:53:53;100728.28;;;9.82;71.02
77793;BME280;66983;51.438;5.438;2023-04-24T11:56:21;100735.53;;;9.79;72.33
77793;BME280;66983;51.438;5.438;2023-04-24T11:58:48;100722.84;;;9.85;72.93
77793;BME280;66983;51.438;5.438;2023-04-24T12:01:14;100729.91;;;9.86;71.46
77793;BME280;66983;51.438;5.438;2023-04-24T12:03:39;100737.81;;;9.88;69.74
77793;BME280;66983;51.438;5.438;2023-04-24T12:06:11;100726.75;;;9.99;72.65
77793;BME280;66983;51.438;5.438;2023-04-24T12:08:37;100739.63;;;10.11;73.32
77793;BME280;66983;51.438;5.438;2023-04-24T12:11:05;100734.09;;;10.15;72.75
77793;BME280;66983;51.438;5.438;2023-04-24T12:13:33;100731.97;;;10.25;71.74
77793;BME280;66983;51.438;5.438;2023-04-24T12:16:02;100737.50;;;10.42;71.26
77793;BME280;66983;51.438;5.438;2023-04-24T12:18:28;100741.53;;;10.52;69.09
77793;BME280;66983;51.438;5.438;2023-04-24T12:20:53;100730.75;;;10.56;68.14
77793;BME280;66983;51.438;5.438;2023-04-24T12:23:35;100743.97;;;10.59;68.68
77793;BME280;66983;51.438;5.438;2023-04-24T12:26:03;100746.28;;;10.66;69.04
77793;BME280;66983;51.438;5.438;2023-04-24T12:28:37;100755.78;;;10.73;67.85
77793;BME280;66983;51.438;5.438;2023-04-24T12:31:03;100760.38;;;10.70;68.13
77793;BME280;66983;51.438;5.438;2023-04-24T12:33:33;100762.38;;;10.65;67.91
77793;BME280;66983;51.438;5.438;2023-04-24T12:35:59;100764.25;;;10.63;68.36
77793;BME280;66983;51.438;5.438;2023-04-24T12:38:27;100771.97;;;10.69;68.86
77793;BME280;66983;51.438;5.438;2023-04-24T12:41:04;100772.72;;;10.72;68.28
77793;BME280;66983;51.438;5.438;2023-04-24T12:43:30;100779.09;;;10.68;67.74
77793;BME280;66983;51.438;5.438;2023-04-24T12:45:56;100776.25;;;10.73;67.12
77793;BME280;66983;51.438;5.438;2023-04-24T12:48:22;100775.88;;;10.82;67.58
77793;BME280;66983;51.438;5.438;2023-04-24T12:50:48;100776.94;;;10.78;66.98
77793;BME280;66983;51.438;5.438;2023-04-24T12:53:14;100775.50;;;10.69;65.86
77793;BME280;66983;51.438;5.438;2023-04-24T12:55:41;100775.72;;;10.65;66.99
77793;BME280;66983;51.438;5.438;2023-04-24T12:58:06;100774.03;;;10.62;66.71
77793;BME280;66983;51.438;5.438;2023-04-24T13:00:33;100770.44;;;10.63;66.41
77793;BME280;66983;51.438;5.438;2023-04-24T13:02:58;100777.16;;;10.72;66.00
77793;BME280;66983;51.438;5.438;2023-04-24T13:05:24;100777.97;;;10.74;66.62
77793;BME280;66983;51.438;5.438;2023-04-24T13:07:50;100797.09;;;10.85;66.21